Time;durP1;ratioP1;P1;durP2;ratioP2;P2;SDS_P1;SDS_P2;PMS_P1;PMS_P2;Temp;Humidity;BMP_temperature;BMP_pressure;BME280_temperature;BME280_humidity;BME280_pressure;Samples;Min_cycle;Max_cycle;Signal;HPM_P1;HPM_P2
2021/03/26 00:01:56;;;;;;;;;;;12.60;69.10;;;;;;5043230;28;19916;-58
2021/03/26 00:04:22;;;;;;;;;;;12.60;69.30;;;;;;5042505;28;19958;-59
2021/03/26 00:06:47;;;;;;;;;;;12.60;69.40;;;;;;5038916;28;19916;-57
2021/03/26 00:09:14;;;;;;;;;;;12.50;69.40;;;;;;5035498;28;20008;-60
2021/03/26 00:11:40;;;;;;;;;;;12.50;69.40;;;;;;5033460;28;20255;-59
2021/03/26 00:14:05;;;;;;;;;;;12.50;69.50;;;;;;5035762;28;19915;-58
2021/03/26 00:16:31;;;;;;;;;;;12.50;69.60;;;;;;5039309;28;19967;-56
2021/03/26 00:18:56;;;;;;;;;;;12.40;69.50;;;;;;5035048;28;19920;-57
2021/03/26 00:21:21;;;;;;;;;;;12.40;69.60;;;;;;5038203;28;20426;-59
2021/03/26 00:23:47;;;;;;;;;;;12.40;69.60;;;;;;5047333;28;19909;-58
2021/03/26 00:26:12;;;;;;;;;;;12.30;69.60;;;;;;5033245;28;19935;-60
2021/03/26 00:28:38;;;;;;;;;;;12.30;69.70;;;;;;5028186;28;19914;-58
2021/03/26 00:31:03;;;;;;;;;;;12.40;69.70;;;;;;5035738;28;19924;-56
2021/03/26 00:33:29;;;;;;;;;;;12.30;69.80;;;;;;5050649;28;20379;-58
2021/03/26 00:35:54;;;;;;;;;;;12.30;69.90;;;;;;5031989;28;19909;-58
2021/03/26 00:38:21;;;;;;;;;;;12.30;69.90;;;;;;5016098;28;19963;-55
2021/03/26 00:40:46;;;;;;;;;;;12.20;70.00;;;;;;5038172;28;20002;-59
2021/03/26 00:43:11;;;;;;;;;;;12.20;70.70;;;;;;5036297;28;20361;-58
2021/03/26 00:45:37;;;;;;;;;;;12.20;70.20;;;;;;5036665;28;19935;-57
2021/03/26 00:48:04;;;;;;;;;;;12.40;70.30;;;;;;5001147;28;19920;-57
2021/03/26 00:50:31;;;;;;;;;;;12.10;70.20;;;;;;5052865;28;19909;-57
2021/03/26 00:52:57;;;;;;;;;;;12.10;70.30;;;;;;5017957;28;19913;-57
2021/03/26 00:55:22;;;;;;;;;;;12.10;70.30;;;;;;5036550;28;19913;-57
2021/03/26 00:57:48;;;;;;;;;;;12.10;70.40;;;;;;5037586;28;20412;-60
2021/03/26 01:00:15;;;;;;;;;;;12.00;70.40;;;;;;5034604;28;19909;-59
2021/03/26 01:05:52;;;;;;;;;;;12.00;70.50;;;;;;5034675;28;19924;-61
2021/03/26 01:08:18;;;;;;;;;;;11.90;70.50;;;;;;5049287;28;19909;-58
2021/03/26 01:10:44;;;;;;;;;;;11.90;70.60;;;;;;5020630;28;19909;-56
2021/03/26 01:13:10;;;;;;;;;;;11.90;70.80;;;;;;5036768;28;20363;-59
2021/03/26 01:15:35;;;;;;;;;;;11.90;70.80;;;;;;5037653;28;19915;-56
2021/03/26 01:18:02;;;;;;;;;;;11.90;70.80;;;;;;5039192;28;19909;-58
2021/03/26 01:20:28;;;;;;;;;;;11.90;70.90;;;;;;5038089;28;19917;-58
2021/03/26 01:22:54;;;;;;;;;;;11.80;70.90;;;;;;5038921;28;19912;-56
2021/03/26 01:25:19;;;;;;;;;;;11.80;70.90;;;;;;5035513;28;20203;-59
2021/03/26 01:27:45;;;;;;;;;;;11.80;71.00;;;;;;5035462;28;19913;-56
2021/03/26 01:30:11;;;;;;;;;;;11.70;71.00;;;;;;5037002;28;19956;-60
2021/03/26 01:32:36;;;;;;;;;;;11.70;71.10;;;;;;5028916;28;20019;-59
2021/03/26 01:35:02;;;;;;;;;;;11.70;71.10;;;;;;5036466;28;20348;-57
2021/03/26 01:37:28;;;;;;;;;;;11.70;71.10;;;;;;5022895;28;19909;-58
2021/03/26 01:39:53;;;;;;;;;;;11.70;71.30;;;;;;5035280;28;20265;-57
2021/03/26 01:42:26;;;;;;;;;;;11.60;71.90;;;;;;5046400;28;19920;-59
2021/03/26 01:44:51;;;;;;;;;;;11.60;71.30;;;;;;5051981;28;20331;-57
2021/03/26 01:47:17;;;;;;;;;;;11.60;71.40;;;;;;5024610;28;19958;-59
2021/03/26 01:49:42;;;;;;;;;;;11.50;71.40;;;;;;5041826;28;19909;-59
2021/03/26 01:52:08;;;;;;;;;;;11.50;71.50;;;;;;5039066;28;19913;-59
2021/03/26 01:54:33;;;;;;;;;;;11.50;71.60;;;;;;5054163;28;19913;-55
2021/03/26 01:56:59;;;;;;;;;;;11.50;71.50;;;;;;5043551;28;19935;-58
2021/03/26 01:59:24;;;;;;;;;;;11.50;71.60;;;;;;5039830;28;19909;-59
2021/03/26 02:01:51;;;;;;;;;;;11.40;71.70;;;;;;5049340;28;20368;-57
2021/03/26 02:04:21;;;;;;;;;;;11.40;71.70;;;;;;5053733;28;19952;-58
2021/03/26 02:06:47;;;;;;;;;;;11.40;71.80;;;;;;5047700;28;20004;-57
2021/03/26 02:09:13;;;;;;;;;;;11.40;71.90;;;;;;5054230;28;20432;-59
2021/03/26 02:11:38;;;;;;;;;;;11.30;71.80;;;;;;5031331;28;19909;-59
2021/03/26 02:14:05;;;;;;;;;;;11.30;71.90;;;;;;5039364;28;19916;-60
2021/03/26 02:16:31;;;;;;;;;;;11.30;71.90;;;;;;5029296;28;20358;-58
2021/03/26 02:18:56;;;;;;;;;;;11.30;72.00;;;;;;5059312;28;19920;-58
2021/03/26 02:21:23;;;;;;;;;;;11.30;72.00;;;;;;5049247;28;19912;-60
2021/03/26 02:23:49;;;;;;;;;;;11.30;72.10;;;;;;5054371;28;20357;-59
2021/03/26 02:26:18;;;;;;;;;;;11.20;72.10;;;;;;5027890;28;19931;-59
2021/03/26 02:28:44;;;;;;;;;;;11.20;72.20;;;;;;5044402;28;20369;-59
2021/03/26 02:31:11;;;;;;;;;;;11.20;72.10;;;;;;5029467;28;19916;-57
2021/03/26 02:33:36;;;;;;;;;;;11.20;72.20;;;;;;5046441;28;19966;-58
2021/03/26 02:36:16;;;;;;;;;;;11.20;72.30;;;;;;5052034;28;20352;-60
2021/03/26 02:38:48;;;;;;;;;;;11.20;72.20;;;;;;5045207;28;19925;-57
2021/03/26 02:41:18;;;;;;;;;;;11.10;72.20;;;;;;5048912;28;19963;-59
2021/03/26 02:43:52;;;;;;;;;;;11.10;72.40;;;;;;5041977;28;19916;-57
2021/03/26 02:46:21;;;;;;;;;;;11.10;73.10;;;;;;5045346;28;19909;-57
2021/03/26 02:49:06;;;;;;;;;;;11.10;72.40;;;;;;5019105;28;19913;-57
2021/03/26 02:51:36;;;;;;;;;;;11.00;72.50;;;;;;5046813;28;19917;-56
2021/03/26 02:54:05;;;;;;;;;;;11.00;72.50;;;;;;5023540;28;19917;-57
2021/03/26 02:56:38;;;;;;;;;;;11.00;72.60;;;;;;5053985;28;19920;-57
2021/03/26 02:59:08;;;;;;;;;;;11.00;72.70;;;;;;5054598;28;20375;-56
2021/03/26 03:01:36;;;;;;;;;;;11.00;72.70;;;;;;5041819;28;19914;-57
2021/03/26 03:04:06;;;;;;;;;;;10.90;72.70;;;;;;5042085;28;19955;-58
2021/03/26 03:06:34;;;;;;;;;;;10.90;72.70;;;;;;5039139;28;20015;-58
2021/03/26 03:08:59;;;;;;;;;;;10.90;72.80;;;;;;5055969;28;19909;-59
2021/03/26 03:11:36;;;;;;;;;;;10.90;72.90;;;;;;5061454;28;20066;-58
2021/03/26 03:14:13;;;;;;;;;;;10.80;72.80;;;;;;5041910;28;19908;-59
2021/03/26 03:16:44;;;;;;;;;;;10.90;72.90;;;;;;5028031;28;19913;-59
2021/03/26 03:19:10;;;;;;;;;;;10.80;73.00;;;;;;5053182;28;19913;-57
2021/03/26 03:21:48;;;;;;;;;;;10.80;73.00;;;;;;5029852;28;19983;-58
2021/03/26 03:24:15;;;;;;;;;;;10.60;73.00;;;;;;5035425;28;19913;-57
2021/03/26 03:26:44;;;;;;;;;;;10.70;73.10;;;;;;5059258;28;19912;-58
2021/03/26 03:29:28;;;;;;;;;;;10.70;73.20;;;;;;5025377;28;20532;-57
2021/03/26 03:32:12;;;;;;;;;;;10.70;73.10;;;;;;5045348;28;20269;-60
2021/03/26 03:34:39;;;;;;;;;;;10.70;73.30;;;;;;5030316;28;19978;-56
2021/03/26 03:37:04;;;;;;;;;;;10.60;73.30;;;;;;5038219;28;19913;-59
2021/03/26 03:39:33;;;;;;;;;;;10.60;74.00;;;;;;5050451;28;19924;-57
2021/03/26 03:42:04;;;;;;;;;;;10.60;73.30;;;;;;5033373;28;19917;-58
2021/03/26 03:44:33;;;;;;;;;;;10.60;73.30;;;;;;5042738;28;19912;-59
2021/03/26 03:47:03;;;;;;;;;;;10.60;73.30;;;;;;5022595;28;19913;-56
2021/03/26 03:49:34;;;;;;;;;;;10.60;73.40;;;;;;5024909;28;19916;-57
2021/03/26 03:52:04;;;;;;;;;;;10.50;73.50;;;;;;5035860;28;19909;-58
2021/03/26 03:54:30;;;;;;;;;;;10.50;73.50;;;;;;5054770;28;19909;-56
2021/03/26 03:56:57;;;;;;;;;;;10.50;73.50;;;;;;5039222;28;20284;-56
2021/03/26 03:59:22;;;;;;;;;;;10.50;73.60;;;;;;5045638;28;19909;-60
2021/03/26 04:02:02;;;;;;;;;;;10.50;73.60;;;;;;5044638;28;19939;-59
2021/03/26 04:04:44;;;;;;;;;;;10.50;73.60;;;;;;5039946;28;19913;-58
2021/03/26 04:07:17;;;;;;;;;;;10.40;73.70;;;;;;5004532;28;20328;-60
2021/03/26 04:09:47;;;;;;;;;;;10.40;73.90;;;;;;5027392;28;19909;-60
2021/03/26 04:12:20;;;;;;;;;;;10.40;73.80;;;;;;5055908;28;19991;-56
2021/03/26 04:14:52;;;;;;;;;;;10.40;73.80;;;;;;5020470;28;20007;-57
2021/03/26 04:17:44;;;;;;;;;;;10.30;73.90;;;;;;5061048;28;20353;-58
2021/03/26 04:20:23;;;;;;;;;;;10.30;74.00;;;;;;5044933;28;19913;-59
2021/03/26 04:22:52;;;;;;;;;;;10.30;74.00;;;;;;5020284;28;20287;-57
2021/03/26 04:25:22;;;;;;;;;;;10.30;74.00;;;;;;5063021;28;20272;-59
2021/03/26 04:27:49;;;;;;;;;;;10.30;74.10;;;;;;5032813;28;20148;-58
2021/03/26 04:30:17;;;;;;;;;;;10.30;74.20;;;;;;5052180;28;19955;-56
2021/03/26 04:32:42;;;;;;;;;;;10.20;74.10;;;;;;5034037;28;19909;-59
2021/03/26 04:35:08;;;;;;;;;;;10.20;74.20;;;;;;5054189;28;19909;-55
2021/03/26 04:37:36;;;;;;;;;;;10.20;74.20;;;;;;5018710;28;20264;-59
2021/03/26 04:40:05;;;;;;;;;;;10.20;74.30;;;;;;5044482;28;19921;-58
2021/03/26 04:43:06;;;;;;;;;;;10.10;74.20;;;;;;5034898;28;19925;-57
2021/03/26 04:45:34;;;;;;;;;;;10.10;74.30;;;;;;4984513;28;19918;-58
2021/03/26 04:48:18;;;;;;;;;;;10.10;74.20;;;;;;5012427;28;20093;-59
2021/03/26 04:51:04;;;;;;;;;;;10.10;74.30;;;;;;5034234;28;19909;-61
2021/03/26 04:53:32;;;;;;;;;;;10.10;74.40;;;;;;5044561;28;20438;-59
2021/03/26 04:55:58;;;;;;;;;;;10.10;74.40;;;;;;5057997;28;19909;-58
2021/03/26 04:58:25;;;;;;;;;;;10.10;74.60;;;;;;5021351;28;20021;-59
2021/03/26 05:00:51;;;;;;;;;;;10.10;74.60;;;;;;5063609;28;19952;-58
2021/03/26 05:03:20;;;;;;;;;;;10.00;74.70;;;;;;5021537;28;20380;-59
2021/03/26 05:05:47;;;;;;;;;;;10.00;74.70;;;;;;5060648;28;19920;-59
2021/03/26 05:08:13;;;;;;;;;;;10.00;74.70;;;;;;5031719;28;19913;-58
2021/03/26 05:10:38;;;;;;;;;;;10.00;74.70;;;;;;5054403;28;19916;-60
2021/03/26 05:13:08;;;;;;;;;;;9.90;74.70;;;;;;5043467;28;20253;-59
2021/03/26 05:15:39;;;;;;;;;;;9.90;74.70;;;;;;5063597;28;19913;-58
2021/03/26 05:18:07;;;;;;;;;;;9.90;74.80;;;;;;5029038;28;19908;-59
2021/03/26 05:20:33;;;;;;;;;;;9.90;74.80;;;;;;5020329;28;19996;-59
2021/03/26 05:23:06;;;;;;;;;;;9.80;74.90;;;;;;5068223;28;20371;-58
2021/03/26 05:25:31;;;;;;;;;;;9.80;74.80;;;;;;5068054;28;19909;-59
2021/03/26 05:27:57;;;;;;;;;;;9.80;74.90;;;;;;5053301;28;20000;-58
2021/03/26 05:30:23;;;;;;;;;;;9.80;75.00;;;;;;5050277;28;19909;-58
2021/03/26 05:32:51;;;;;;;;;;;9.80;75.00;;;;;;5052049;28;20425;-61
2021/03/26 05:35:19;;;;;;;;;;;9.80;75.00;;;;;;5055727;28;19919;-55
2021/03/26 05:37:46;;;;;;;;;;;9.80;75.00;;;;;;5046349;28;19952;-60
2021/03/26 05:40:21;;;;;;;;;;;9.80;75.00;;;;;;5057671;28;19920;-56
2021/03/26 05:42:55;;;;;;;;;;;9.70;75.00;;;;;;5053338;28;20391;-60
2021/03/26 05:45:39;;;;;;;;;;;9.70;75.00;;;;;;5047408;28;19911;-61
2021/03/26 05:48:08;;;;;;;;;;;9.70;75.00;;;;;;5040002;28;19909;-56
2021/03/26 05:50:38;;;;;;;;;;;9.70;75.00;;;;;;5060857;28;19943;-56
2021/03/26 05:53:18;;;;;;;;;;;9.70;75.00;;;;;;5039492;28;19911;-56
2021/03/26 05:55:48;;;;;;;;;;;9.70;75.10;;;;;;5051818;28;20438;-60
2021/03/26 05:58:32;;;;;;;;;;;9.70;75.20;;;;;;5047615;28;19913;-62
2021/03/26 06:00:58;;;;;;;;;;;9.60;75.20;;;;;;5047068;28;20326;-56
2021/03/26 06:03:23;;;;;;;;;;;9.60;75.10;;;;;;5049768;28;19909;-57
2021/03/26 06:06:07;;;;;;;;;;;9.60;75.20;;;;;;5047110;28;19909;-59
2021/03/26 06:08:38;;;;;;;;;;;9.60;75.20;;;;;;5033742;28;19915;-59
2021/03/26 06:11:24;;;;;;;;;;;9.60;75.10;;;;;;5048493;28;20092;-57
2021/03/26 06:13:53;;;;;;;;;;;9.60;75.30;;;;;;5061491;28;20008;-60
2021/03/26 06:16:27;;;;;;;;;;;9.50;75.30;;;;;;5050696;28;19966;-60
2021/03/26 06:19:00;;;;;;;;;;;9.50;75.20;;;;;;5049359;28;20667;-59
2021/03/26 06:21:28;;;;;;;;;;;9.50;75.30;;;;;;5042184;28;20527;-58
2021/03/26 06:24:03;;;;;;;;;;;9.50;75.30;;;;;;5049392;28;19989;-59
2021/03/26 06:26:34;;;;;;;;;;;9.50;75.30;;;;;;5038616;28;20360;-59
2021/03/26 06:29:12;;;;;;;;;;;9.50;75.30;;;;;;5037255;28;19920;-59
2021/03/26 06:31:37;;;;;;;;;;;9.50;75.30;;;;;;5035555;28;19994;-60
2021/03/26 06:34:23;;;;;;;;;;;9.50;75.40;;;;;;5033935;28;19955;-56
2021/03/26 06:37:07;;;;;;;;;;;9.50;75.40;;;;;;5035775;28;19909;-58
2021/03/26 06:39:37;;;;;;;;;;;9.40;75.40;;;;;;5032135;28;19971;-57
2021/03/26 06:42:02;;;;;;;;;;;9.40;75.40;;;;;;5016940;28;19924;-62
2021/03/26 06:44:38;;;;;;;;;;;9.40;75.40;;;;;;5047233;28;20016;-61
2021/03/26 06:47:08;;;;;;;;;;;9.40;75.40;;;;;;5031352;28;19909;-60
2021/03/26 06:49:46;;;;;;;;;;;9.40;75.50;;;;;;5045074;28;19912;-56
2021/03/26 06:52:14;;;;;;;;;;;9.40;75.50;;;;;;5030629;28;19909;-65
2021/03/26 06:54:46;;;;;;;;;;;9.40;75.60;;;;;;5033467;28;19916;-59
2021/03/26 06:57:24;;;;;;;;;;;9.40;75.60;;;;;;5052010;28;19915;-61
2021/03/26 07:00:10;;;;;;;;;;;9.40;75.60;;;;;;5015234;28;19913;-59
2021/03/26 07:02:54;;;;;;;;;;;9.40;75.60;;;;;;5030602;28;19921;-60
2021/03/26 07:05:38;;;;;;;;;;;9.30;75.60;;;;;;5029549;28;19913;-57
2021/03/26 07:08:13;;;;;;;;;;;9.40;75.80;;;;;;5029731;28;19916;-56
2021/03/26 07:10:57;;;;;;;;;;;9.40;75.80;;;;;;5031119;28;20034;-57
2021/03/26 07:13:28;;;;;;;;;;;9.30;75.80;;;;;;5056283;28;19909;-57
2021/03/26 07:16:12;;;;;;;;;;;9.40;75.80;;;;;;5030498;28;19909;-59
2021/03/26 07:18:43;;;;;;;;;;;9.40;75.70;;;;;;5042319;28;19958;-58
2021/03/26 07:21:09;;;;;;;;;;;9.30;75.70;;;;;;5030626;28;19913;-57
2021/03/26 07:23:47;;;;;;;;;;;9.30;75.80;;;;;;5031929;28;19913;-60
2021/03/26 07:26:12;;;;;;;;;;;9.30;75.80;;;;;;5039316;28;19912;-57
2021/03/26 07:28:49;;;;;;;;;;;9.30;75.80;;;;;;5036374;28;20281;-59
2021/03/26 07:31:33;;;;;;;;;;;9.30;75.80;;;;;;5037168;28;20399;-60
2021/03/26 07:34:14;;;;;;;;;;;9.30;75.80;;;;;;5059389;28;19913;-60
2021/03/26 07:37:00;;;;;;;;;;;9.30;75.80;;;;;;5029811;28;19913;-59
2021/03/26 07:39:46;;;;;;;;;;;9.30;75.90;;;;;;5054138;28;19924;-57
2021/03/26 07:42:30;;;;;;;;;;;9.30;75.90;;;;;;5049587;28;19968;-57
2021/03/26 07:45:03;;;;;;;;;;;9.30;75.90;;;;;;5044435;28;20434;-56
2021/03/26 07:47:43;;;;;;;;;;;9.30;75.80;;;;;;5051098;28;19917;-59
2021/03/26 07:50:27;;;;;;;;;;;9.30;75.90;;;;;;5044850;28;20440;-59
2021/03/26 07:53:16;;;;;;;;;;;9.30;76.60;;;;;;5029270;28;19956;-60
2021/03/26 07:55:44;;;;;;;;;;;9.30;75.90;;;;;;5048127;28;19952;-57
2021/03/26 07:58:29;;;;;;;;;;;9.30;75.90;;;;;;5059644;28;19997;-57
2021/03/26 08:01:07;;;;;;;;;;;9.30;75.90;;;;;;5051515;28;19920;-59
2021/03/26 08:03:32;;;;;;;;;;;9.30;75.90;;;;;;5049390;28;20362;-56
2021/03/26 08:06:14;;;;;;;;;;;9.30;75.90;;;;;;5048720;28;20028;-60
2021/03/26 08:09:02;;;;;;;;;;;9.30;75.90;;;;;;5037743;28;19913;-61
2021/03/26 08:11:36;;;;;;;;;;;9.40;76.00;;;;;;5025275;28;19933;-59
2021/03/26 08:14:12;;;;;;;;;;;9.30;76.00;;;;;;5059070;28;19961;-58
2021/03/26 08:16:56;;;;;;;;;;;9.30;76.10;;;;;;5059067;28;20257;-57
2021/03/26 08:19:39;;;;;;;;;;;9.30;76.20;;;;;;5032155;28;19917;-58
2021/03/26 08:22:23;;;;;;;;;;;9.30;76.40;;;;;;5030267;28;19944;-59
2021/03/26 08:24:48;;;;;;;;;;;9.40;76.50;;;;;;5029125;28;19919;-59
2021/03/26 08:27:20;;;;;;;;;;;9.30;76.60;;;;;;5045759;28;19995;-56
2021/03/26 08:29:53;;;;;;;;;;;9.40;76.70;;;;;;5025246;28;19940;-58
2021/03/26 08:32:24;;;;;;;;;;;9.40;76.90;;;;;;5044202;28;20051;-57
2021/03/26 08:35:12;;;;;;;;;;;9.40;77.00;;;;;;5032493;28;19909;-58
2021/03/26 08:37:50;;;;;;;;;;;9.40;76.90;;;;;;5026238;28;19920;-57
2021/03/26 08:40:36;;;;;;;;;;;9.40;76.90;;;;;;5029083;28;19917;-59
2021/03/26 08:43:01;;;;;;;;;;;9.40;76.80;;;;;;5010908;28;20157;-56
2021/03/26 08:45:29;;;;;;;;;;;9.40;76.90;;;;;;5030089;28;20187;-56
2021/03/26 08:47:58;;;;;;;;;;;9.40;76.90;;;;;;5028890;28;19916;-57
2021/03/26 08:50:26;;;;;;;;;;;9.40;76.90;;;;;;5028927;28;20396;-57
2021/03/26 08:53:11;;;;;;;;;;;9.40;76.90;;;;;;5048872;28;19917;-55
2021/03/26 08:55:40;;;;;;;;;;;9.40;76.80;;;;;;5030691;28;19979;-55
2021/03/26 08:58:25;;;;;;;;;;;9.40;76.90;;;;;;5030574;28;19924;-58
2021/03/26 09:01:04;;;;;;;;;;;9.40;76.80;;;;;;5032339;28;19920;-56
2021/03/26 09:03:29;;;;;;;;;;;9.50;76.90;;;;;;5018892;28;19913;-57
2021/03/26 09:06:13;;;;;;;;;;;9.50;76.90;;;;;;5030508;28;19944;-58
2021/03/26 09:08:39;;;;;;;;;;;9.50;76.80;;;;;;5025575;28;20387;-57
2021/03/26 09:11:12;;;;;;;;;;;9.50;76.80;;;;;;5029419;28;19995;-60
2021/03/26 09:13:45;;;;;;;;;;;9.50;76.70;;;;;;5029448;28;19963;-59
2021/03/26 09:16:11;;;;;;;;;;;9.60;76.60;;;;;;4998827;28;19923;-59
2021/03/26 09:18:45;;;;;;;;;;;9.50;76.60;;;;;;5016444;28;20420;-56
2021/03/26 09:21:23;;;;;;;;;;;9.60;76.60;;;;;;5047618;28;19967;-58
2021/03/26 09:24:07;;;;;;;;;;;9.50;76.50;;;;;;5028220;28;20457;-60
2021/03/26 09:26:51;;;;;;;;;;;9.60;76.90;;;;;;5033802;28;19935;-58
2021/03/26 09:29:22;;;;;;;;;;;9.60;77.10;;;;;;5004018;28;19914;-56
2021/03/26 09:31:57;;;;;;;;;;;9.60;77.10;;;;;;5017859;28;19928;-59
2021/03/26 09:34:23;;;;;;;;;;;9.60;77.10;;;;;;5028389;28;20253;-56
2021/03/26 09:36:52;;;;;;;;;;;9.60;77.10;;;;;;5040342;28;19922;-59
2021/03/26 09:39:18;;;;;;;;;;;9.60;77.10;;;;;;5027402;28;19917;-57
2021/03/26 09:41:47;;;;;;;;;;;9.60;77.20;;;;;;5032398;28;20300;-58
2021/03/26 09:44:16;;;;;;;;;;;9.60;77.30;;;;;;5038681;28;19947;-59
2021/03/26 09:46:43;;;;;;;;;;;9.70;77.30;;;;;;5029040;28;19979;-56
2021/03/26 09:49:21;;;;;;;;;;;9.70;77.30;;;;;;5050653;28;19909;-56
2021/03/26 09:51:49;;;;;;;;;;;9.70;77.30;;;;;;5026055;28;20375;-58
2021/03/26 09:54:21;;;;;;;;;;;9.70;77.20;;;;;;5043084;28;19909;-57
2021/03/26 09:57:05;;;;;;;;;;;9.70;77.10;;;;;;5046315;28;19935;-59
2021/03/26 09:59:40;;;;;;;;;;;9.80;77.20;;;;;;5045280;28;19970;-58
2021/03/26 10:02:15;;;;;;;;;;;9.80;77.10;;;;;;5053884;28;19913;-58
2021/03/26 10:04:45;;;;;;;;;;;9.80;77.10;;;;;;5043257;28;20283;-58
2021/03/26 10:07:33;;;;;;;;;;;9.80;77.10;;;;;;5038494;28;20276;-57
2021/03/26 10:13:08;;;;;;;;;;;9.90;77.10;;;;;;5032938;28;19913;-58
2021/03/26 10:15:37;;;;;;;;;;;9.90;77.10;;;;;;5042102;28;19909;-57
2021/03/26 10:18:09;;;;;;;;;;;9.90;77.00;;;;;;5022460;28;19999;-57
2021/03/26 10:20:38;;;;;;;;;;;10.00;77.00;;;;;;5044616;28;20185;-56
2021/03/26 10:23:21;;;;;;;;;;;9.90;77.00;;;;;;5047908;28;20298;-56
2021/03/26 10:25:56;;;;;;;;;;;10.00;77.00;;;;;;5031635;28;20016;-59
2021/03/26 10:28:33;;;;;;;;;;;10.00;77.00;;;;;;5044273;28;19966;-56
2021/03/26 10:31:04;;;;;;;;;;;10.00;77.10;;;;;;5045615;28;20004;-57
2021/03/26 10:33:32;;;;;;;;;;;10.00;77.10;;;;;;5045292;28;19920;-58
2021/03/26 10:36:11;;;;;;;;;;;10.10;77.00;;;;;;5028980;28;19909;-61
2021/03/26 10:38:39;;;;;;;;;;;10.10;77.00;;;;;;5049983;28;20392;-60
2021/03/26 10:41:12;;;;;;;;;;;10.10;76.90;;;;;;5050911;28;19920;-58
2021/03/26 10:43:40;;;;;;;;;;;10.20;77.20;;;;;;5032737;28;19964;-58
2021/03/26 10:46:07;;;;;;;;;;;10.20;76.80;;;;;;5046204;28;19909;-55
2021/03/26 10:48:37;;;;;;;;;;;10.20;76.70;;;;;;5027747;28;19913;-58
2021/03/26 10:51:15;;;;;;;;;;;10.30;76.70;;;;;;5038736;28;19913;-59
2021/03/26 10:53:50;;;;;;;;;;;10.30;76.70;;;;;;5050588;28;19909;-56
2021/03/26 10:56:21;;;;;;;;;;;10.30;76.70;;;;;;5034979;28;20395;-57
2021/03/26 10:58:48;;;;;;;;;;;10.30;76.70;;;;;;5039704;28;19972;-58
2021/03/26 11:01:18;;;;;;;;;;;10.40;76.60;;;;;;5057823;28;20243;-55
2021/03/26 11:03:57;;;;;;;;;;;10.40;76.50;;;;;;5025432;28;20369;-59
2021/03/26 11:06:30;;;;;;;;;;;10.40;76.50;;;;;;5045225;28;19913;-57
2021/03/26 11:08:58;;;;;;;;;;;10.50;76.40;;;;;;5021931;28;19916;-59
2021/03/26 11:11:31;;;;;;;;;;;10.50;77.10;;;;;;5034151;28;19908;-58
2021/03/26 11:14:03;;;;;;;;;;;10.50;76.30;;;;;;5019243;28;19921;-58
2021/03/26 11:16:38;;;;;;;;;;;10.60;76.30;;;;;;5035733;28;19913;-57
2021/03/26 11:19:06;;;;;;;;;;;10.60;76.30;;;;;;5031505;28;19917;-56
2021/03/26 11:21:43;;;;;;;;;;;10.70;76.10;;;;;;5031536;28;19913;-56
2021/03/26 11:24:10;;;;;;;;;;;10.70;76.10;;;;;;5036499;28;19913;-59
2021/03/26 11:26:50;;;;;;;;;;;10.80;75.90;;;;;;5028303;28;19970;-60
2021/03/26 11:29:23;;;;;;;;;;;10.60;75.70;;;;;;5029064;28;19921;-57
2021/03/26 11:31:59;;;;;;;;;;;10.90;75.70;;;;;;5051650;28;20380;-58
2021/03/26 11:34:25;;;;;;;;;;;10.90;75.50;;;;;;5009027;28;19975;-58
2021/03/26 11:36:52;;;;;;;;;;;11.00;75.50;;;;;;5041047;28;19917;-58
2021/03/26 11:39:44;;;;;;;;;;;11.00;75.30;;;;;;5048572;28;19921;-56
2021/03/26 11:42:12;;;;;;;;;;;11.10;75.30;;;;;;5033585;28;20402;-56
2021/03/26 11:44:38;;;;;;;;;;;11.10;75.10;;;;;;5026798;28;19913;-62
2021/03/26 11:47:05;;;;;;;;;;;11.10;74.90;;;;;;5027862;28;19913;-59
2021/03/26 11:49:32;;;;;;;;;;;11.20;74.90;;;;;;5035635;28;20276;-60
2021/03/26 11:51:58;;;;;;;;;;;11.30;74.80;;;;;;5042605;28;19935;-56
2021/03/26 11:54:26;;;;;;;;;;;11.30;74.60;;;;;;5039057;28;20360;-56
2021/03/26 11:57:09;;;;;;;;;;;11.30;74.40;;;;;;5046476;28;19908;-59
2021/03/26 11:59:50;;;;;;;;;;;11.40;74.20;;;;;;5050402;28;19909;-59
2021/03/26 12:02:24;;;;;;;;;;;11.50;74.10;;;;;;5051673;28;19913;-56
2021/03/26 12:05:08;;;;;;;;;;;11.60;74.00;;;;;;5038191;28;19909;-56
2021/03/26 12:07:36;;;;;;;;;;;11.60;73.90;;;;;;5037548;28;20351;-58
2021/03/26 12:10:09;;;;;;;;;;;11.70;73.70;;;;;;5027741;28;19959;-56
2021/03/26 12:12:43;;;;;;;;;;;11.70;73.40;;;;;;5028849;28;19917;-56
2021/03/26 12:15:10;;;;;;;;;;;11.80;73.30;;;;;;5029121;28;19952;-56
2021/03/26 12:17:36;;;;;;;;;;;11.80;73.10;;;;;;5032015;28;19920;-60
2021/03/26 12:20:24;;;;;;;;;;;11.90;73.00;;;;;;5040795;28;19979;-56
2021/03/26 12:23:03;;;;;;;;;;;11.90;72.80;;;;;;5022635;28;19920;-59
2021/03/26 12:25:34;;;;;;;;;;;12.00;72.80;;;;;;5041254;28;20794;-60
2021/03/26 12:28:04;;;;;;;;;;;12.00;72.80;;;;;;5047373;28;19920;-57
2021/03/26 12:30:32;;;;;;;;;;;12.10;72.70;;;;;;5025453;28;19913;-58
2021/03/26 12:33:00;;;;;;;;;;;12.10;72.60;;;;;;5036503;28;19929;-59
2021/03/26 12:35:27;;;;;;;;;;;12.20;72.60;;;;;;5032471;28;19913;-58
2021/03/26 12:37:53;;;;;;;;;;;12.20;72.60;;;;;;5044107;28;20811;-58
2021/03/26 12:40:23;;;;;;;;;;;12.30;73.10;;;;;;5048677;28;20016;-57
2021/03/26 12:42:51;;;;;;;;;;;12.30;72.50;;;;;;5051229;28;19983;-59
2021/03/26 12:45:35;;;;;;;;;;;12.40;72.40;;;;;;5021117;28;20482;-56
2021/03/26 12:48:02;;;;;;;;;;;12.40;72.20;;;;;;5029467;28;19962;-57
2021/03/26 12:50:32;;;;;;;;;;;12.50;72.10;;;;;;5014827;28;19917;-56
2021/03/26 12:53:13;;;;;;;;;;;12.60;72.10;;;;;;5030895;28;20016;-56
2021/03/26 12:55:44;;;;;;;;;;;12.60;71.80;;;;;;5010838;28;20262;-58
2021/03/26 12:58:15;;;;;;;;;;;12.70;72.00;;;;;;5019806;28;19913;-57
2021/03/26 13:00:56;;;;;;;;;;;12.80;72.00;;;;;;5036062;28;20007;-55
2021/03/26 13:03:24;;;;;;;;;;;12.80;72.00;;;;;;5044657;28;19983;-57
2021/03/26 13:06:01;;;;;;;;;;;12.90;71.50;;;;;;5035015;28;19913;-56
2021/03/26 13:08:27;;;;;;;;;;;13.00;71.00;;;;;;5034936;28;20535;-60
2021/03/26 13:11:16;;;;;;;;;;;13.10;70.50;;;;;;5052190;28;19913;-59
2021/03/26 13:13:56;;;;;;;;;;;13.20;70.20;;;;;;5022841;28;19913;-59
2021/03/26 13:16:23;;;;;;;;;;;13.30;70.70;;;;;;5031414;28;19948;-57
2021/03/26 13:18:50;;;;;;;;;;;13.40;69.20;;;;;;5026411;28;19999;-58
2021/03/26 13:21:38;;;;;;;;;;;13.50;68.80;;;;;;5016948;28;20281;-58
2021/03/26 13:24:07;;;;;;;;;;;13.60;69.10;;;;;;5024579;28;19914;-58
2021/03/26 13:26:32;;;;;;;;;;;13.70;68.10;;;;;;5048093;28;19917;-56
2021/03/26 13:28:59;;;;;;;;;;;13.80;68.00;;;;;;5028812;28;19921;-58
2021/03/26 13:31:29;;;;;;;;;;;13.90;67.60;;;;;;5030963;28;19942;-58
2021/03/26 13:33:55;;;;;;;;;;;14.00;67.80;;;;;;5026900;28;20392;-56
2021/03/26 13:36:23;;;;;;;;;;;14.00;68.00;;;;;;5041068;28;19913;-57
2021/03/26 13:38:53;;;;;;;;;;;14.10;67.50;;;;;;5015909;28;19967;-56
2021/03/26 13:41:38;;;;;;;;;;;14.20;67.70;;;;;;5059224;28;19921;-57
2021/03/26 13:44:18;;;;;;;;;;;14.30;67.20;;;;;;5038911;28;19967;-59
2021/03/26 13:46:45;;;;;;;;;;;14.40;66.50;;;;;;5017534;28;19913;-57
2021/03/26 13:49:18;;;;;;;;;;;14.50;66.30;;;;;;5048062;28;19917;-58
2021/03/26 13:51:44;;;;;;;;;;;14.50;66.00;;;;;;5027025;28;19913;-57
2021/03/26 13:54:29;;;;;;;;;;;14.60;66.10;;;;;;5055546;28;20406;-56
2021/03/26 13:56:54;;;;;;;;;;;14.70;64.80;;;;;;5038142;28;19913;-60
2021/03/26 13:59:39;;;;;;;;;;;14.80;64.90;;;;;;5057848;28;19921;-59
2021/03/26 14:02:12;;;;;;;;;;;14.70;64.50;;;;;;5029489;28;19967;-55
2021/03/26 14:04:42;;;;;;;;;;;14.90;64.10;;;;;;5052675;28;19917;-61
2021/03/26 14:07:15;;;;;;;;;;;14.90;63.90;;;;;;5018993;28;20341;-58
2021/03/26 14:10:01;;;;;;;;;;;15.00;63.60;;;;;;5040896;28;19920;-59
2021/03/26 14:12:28;;;;;;;;;;;15.00;63.80;;;;;;5036843;28;20023;-57
2021/03/26 14:14:58;;;;;;;;;;;15.10;64.10;;;;;;5021690;28;19920;-58
2021/03/26 14:17:23;;;;;;;;;;;15.10;63.10;;;;;;5008910;28;19959;-58
2021/03/26 14:19:55;;;;;;;;;;;15.20;63.20;;;;;;5031257;28;19952;-56
2021/03/26 14:22:24;;;;;;;;;;;15.20;62.40;;;;;;5025043;28;19913;-56
2021/03/26 14:24:50;;;;;;;;;;;15.20;62.20;;;;;;5028901;28;19924;-60
2021/03/26 14:27:22;;;;;;;;;;;15.30;62.40;;;;;;5036723;28;19913;-59
2021/03/26 14:29:52;;;;;;;;;;;15.30;61.90;;;;;;5019826;28;19974;-61
2021/03/26 14:32:41;;;;;;;;;;;15.30;61.90;;;;;;5018320;28;19917;-60
2021/03/26 14:35:08;;;;;;;;;;;15.40;61.30;;;;;;5036281;28;19939;-58
2021/03/26 14:37:37;;;;;;;;;;;15.40;61.10;;;;;;5056226;28;19921;-56
2021/03/26 14:40:06;;;;;;;;;;;15.40;61.20;;;;;;5021233;28;19924;-59
2021/03/26 14:42:33;;;;;;;;;;;15.40;62.00;;;;;;5034497;28;21640;-57
2021/03/26 14:45:22;;;;;;;;;;;15.50;61.30;;;;;;5028953;28;20016;-56
2021/03/26 14:47:47;;;;;;;;;;;15.50;61.10;;;;;;5033912;28;19917;-58
2021/03/26 14:50:16;;;;;;;;;;;15.50;61.10;;;;;;5048757;28;19926;-58
2021/03/26 14:52:45;;;;;;;;;;;15.60;62.20;;;;;;5040939;28;20408;-59
2021/03/26 14:55:14;;;;;;;;;;;15.60;62.00;;;;;;5050103;28;19959;-58